Time;durP1;ratioP1;P1;durP2;ratioP2;P2;SDS_P1;SDS_P2;PMS_P1;PMS_P2;Temp;Humidity;BMP_temperature;BMP_pressure;BME280_temperature;BME280_humidity;BME280_pressure;Samples;Min_cycle;Max_cycle;Signal;HPM_P1;HPM_P2
2023/01/23 00:01:12;;;;;;;2.30;2.07;;;;;;;0.24;100.00;102133.72;5072072;28;20415;-74
2023/01/23 00:03:38;;;;;;;0.20;0.20;;;;;;;0.24;100.00;102139.09;5071472;28;20776;-74
2023/01/23 00:06:06;;;;;;;0.77;0.77;;;;;;;0.24;100.00;102142.63;5070339;28;20439;-75
2023/01/23 00:08:32;;;;;;;0.17;0.17;;;;;;;0.23;100.00;102142.81;5072007;28;20188;-74
2023/01/23 00:10:57;;;;;;;0.00;0.00;;;;;;;0.27;100.00;102139.53;5071790;28;20627;-74
2023/01/23 00:13:23;;;;;;;0.00;0.00;;;;;;;0.27;100.00;102142.19;5071534;28;20725;-73
2023/01/23 00:15:49;;;;;;;0.20;0.20;;;;;;;0.26;100.00;102140.56;5071546;28;20700;-74
2023/01/23 00:18:14;;;;;;;0.00;0.00;;;;;;;0.31;100.00;102144.50;5071536;28;20202;-74
2023/01/23 00:20:40;;;;;;;0.00;0.00;;;;;;;0.27;100.00;102146.75;5071802;28;20202;-75
2023/01/23 00:23:06;;;;;;;0.17;0.17;;;;;;;0.30;100.00;102138.31;5071237;28;20170;-75
2023/01/23 00:25:33;;;;;;;0.00;0.00;;;;;;;0.26;100.00;102140.56;5071462;28;20421;-74
2023/01/23 00:27:58;;;;;;;0.00;0.00;;;;;;;0.27;100.00;102141.38;5071376;28;20424;-74
2023/01/23 00:30:23;;;;;;;0.30;0.20;;;;;;;0.28;100.00;102143.84;5071182;28;20749;-74
2023/01/23 00:32:48;;;;;;;1.23;1.13;;;;;;;0.26;100.00;102137.88;5071189;28;20174;-73
2023/01/23 00:35:14;;;;;;;1.07;1.03;;;;;;;0.29;100.00;102147.41;5071398;28;20506;-74
2023/01/23 00:37:39;;;;;;;3.10;0.40;;;;;;;0.26;100.00;102147.78;5071155;28;20209;-74
2023/01/23 00:40:05;;;;;;;0.00;0.00;;;;;;;0.27;100.00;102142.19;5071044;28;20177;-74
2023/01/23 00:42:30;;;;;;;0.13;0.13;;;;;;;0.28;100.00;102149.22;5071125;28;20178;-74
2023/01/23 00:44:56;;;;;;;0.00;0.00;;;;;;;0.30;100.00;102138.31;5071638;28;20174;-74
2023/01/23 00:47:21;;;;;;;0.10;0.10;;;;;;;0.25;100.00;102141.59;5071460;28;20690;-74
2023/01/23 00:49:46;;;;;;;2.60;2.50;;;;;;;0.25;100.00;102138.06;5071026;28;20175;-75
2023/01/23 00:52:11;;;;;;;3.30;3.17;;;;;;;0.24;100.00;102136.41;5071235;28;20178;-74
2023/01/23 00:54:38;;;;;;;0.00;0.00;;;;;;;0.25;100.00;102135.38;5070961;28;20175;-75
2023/01/23 00:57:03;;;;;;;1.17;1.17;;;;;;;0.23;100.00;102146.34;5068978;28;20198;-75
2023/01/23 00:59:28;;;;;;;2.43;1.43;;;;;;;0.23;100.00;102143.66;5070789;28;20178;-73
2023/01/23 01:01:54;;;;;;;0.83;0.83;;;;;;;0.22;100.00;102139.31;5070757;28;20597;-74
2023/01/23 01:04:19;;;;;;;0.30;0.30;;;;;;;0.23;100.00;102142.81;5070727;28;20174;-75
2023/01/23 01:06:44;;;;;;;0.93;0.93;;;;;;;0.23;100.00;102140.13;5070833;28;20213;-74
2023/01/23 01:09:10;;;;;;;3.20;1.60;;;;;;;0.23;100.00;102142.81;5069542;28;20202;-74
2023/01/23 01:11:36;;;;;;;1.80;1.30;;;;;;;0.22;100.00;102152.75;5070759;28;20634;-75
2023/01/23 01:14:01;;;;;;;4.70;4.33;;;;;;;0.22;100.00;102155.44;5070558;28;20531;-73
2023/01/23 01:16:26;;;;;;;1.10;1.00;;;;;;;0.22;100.00;102158.13;5070715;28;20224;-75
2023/01/23 01:18:52;;;;;;;0.00;0.00;;;;;;;0.23;100.00;102165.16;5070617;28;20210;-74
2023/01/23 01:21:18;;;;;;;0.57;0.57;;;;;;;0.25;100.00;102170.31;5070694;28;20634;-75
2023/01/23 01:23:43;;;;;;;0.50;0.40;;;;;;;0.24;100.00;102163.28;5070447;28;20171;-73
2023/01/23 01:26:09;;;;;;;1.03;1.00;;;;;;;0.22;100.00;102168.88;5070935;28;20269;-75
2023/01/23 01:28:38;;;;;;;0.87;0.87;;;;;;;0.23;100.00;102162.47;5070590;28;20269;-74
2023/01/23 01:31:13;;;;;;;2.77;2.57;;;;;;;0.24;100.00;102169.50;5070542;28;20424;-73
2023/01/23 01:33:39;;;;;;;0.40;0.40;;;;;;;0.23;100.00;102170.53;5070457;28;20779;-73
2023/01/23 01:36:16;;;;;;;3.97;3.60;;;;;;;0.24;100.00;102168.66;5070208;28;20195;-74
2023/01/23 01:38:42;;;;;;;2.10;1.37;;;;;;;0.25;100.00;102173.00;5070889;28;20487;-74
2023/01/23 01:41:08;;;;;;;3.50;1.50;;;;;;;0.26;100.00;102182.72;5070437;28;20235;-74
2023/01/23 01:43:34;;;;;;;0.00;0.00;;;;;;;0.26;100.00;102171.97;5070279;28;20249;-74
2023/01/23 01:46:05;;;;;;;0.17;0.17;;;;;;;0.25;100.00;102181.91;5070284;28;20282;-75
2023/01/23 01:49:00;;;;;;;0.83;0.83;;;;;;;0.25;100.00;102187.28;5070310;28;20179;-73
2023/01/23 01:51:46;;;;;;;1.37;1.27;;;;;;;0.25;100.00;102187.28;5070304;28;20417;-75
2023/01/23 01:54:42;;;;;;;0.00;0.00;;;;;;;0.26;100.00;102191.63;5070278;28;20772;-74
2023/01/23 01:57:25;;;;;;;2.20;2.10;;;;;;;0.24;100.00;102188.31;5070232;28;20305;-74
2023/01/23 02:00:07;;;;;;;0.00;0.00;;;;;;;0.25;100.00;102195.34;5070312;28;20171;-74
2023/01/23 02:02:40;;;;;;;1.60;1.00;;;;;;;0.25;100.00;102191.81;5070143;28;20174;-74
2023/01/23 02:05:10;;;;;;;0.73;0.73;;;;;;;0.27;100.00;102200.50;5070126;28;20244;-74
2023/01/23 02:07:53;;;;;;;0.37;0.37;;;;;;;0.24;100.00;102196.38;5070834;28;20420;-73
2023/01/23 02:10:19;;;;;;;0.27;0.27;;;;;;;0.24;100.00;102201.75;5073894;28;20174;-75
2023/01/23 02:12:47;;;;;;;1.20;1.20;;;;;;;0.26;100.00;102202.38;5073844;28;20436;-73
2023/01/23 02:15:12;;;;;;;1.57;1.57;;;;;;;0.24;100.00;102203.59;5073790;28;20177;-75
2023/01/23 02:17:38;;;;;;;2.37;2.27;;;;;;;0.24;100.00;102195.53;5073664;28;20210;-74
2023/01/23 02:20:17;;;;;;;0.13;0.13;;;;;;;0.27;100.00;102195.97;5073754;28;20289;-74
2023/01/23 02:22:49;;;;;;;0.57;0.57;;;;;;;0.24;100.00;102203.59;5073669;28;20551;-73
2023/01/23 02:25:37;;;;;;;4.43;1.43;;;;;;;0.26;100.00;102206.91;5073706;28;20266;-73
2023/01/23 02:28:03;;;;;;;1.60;1.50;;;;;;;0.25;100.00;102205.25;5073798;28;20908;-74
2023/01/23 02:30:28;;;;;;;4.20;1.87;;;;;;;0.26;100.00;102212.28;5073414;28;20421;-74
2023/01/23 02:32:53;;;;;;;0.60;0.60;;;;;;;0.29;100.00;102209.22;5073962;28;20175;-73
2023/01/23 02:35:27;;;;;;;2.80;2.43;;;;;;;0.27;100.00;102211.25;5072144;28;20228;-74
2023/01/23 02:37:57;;;;;;;1.03;1.03;;;;;;;0.27;100.00;102205.88;5073371;28;20537;-74
2023/01/23 02:40:35;;;;;;;0.53;0.53;;;;;;;0.29;100.00;102211.91;5073319;28;20419;-74
2023/01/23 02:43:03;;;;;;;6.40;6.00;;;;;;;0.29;100.00;102207.38;5073274;28;20420;-74
2023/01/23 02:45:28;;;;;;;0.70;0.60;;;;;;;0.29;100.00;102211.91;5073338;28;20179;-74
2023/01/23 02:47:53;;;;;;;2.13;1.40;;;;;;;0.30;100.00;102216.25;5071868;28;20478;-74
2023/01/23 02:50:19;;;;;;;3.23;3.13;;;;;;;0.29;100.00;102215.44;5073027;28;20178;-74
2023/01/23 02:52:44;;;;;;;1.30;1.30;;;;;;;0.28;100.00;102216.44;5071693;28;20181;-74
2023/01/23 02:55:10;;;;;;;6.00;2.90;;;;;;;0.29;100.00;102218.13;5073238;28;20167;-73
2023/01/23 02:57:35;;;;;;;2.17;2.07;;;;;;;0.28;100.00;102224.50;5073112;28;20248;-75
2023/01/23 03:00:16;;;;;;;0.30;0.30;;;;;;;0.31;100.00;102212.53;5073058;28;20202;-74
2023/01/23 03:02:42;;;;;;;21.17;5.90;;;;;;;0.27;100.00;102222.00;5072745;28;20167;-73
2023/01/23 03:05:07;;;;;;;0.37;0.37;;;;;;;0.28;100.00;102223.66;5071366;28;20844;-75
2023/01/23 03:07:33;;;;;;;2.77;2.53;;;;;;;0.27;100.00;102220.16;5072911;28;20421;-76
2023/01/23 03:09:59;;;;;;;4.37;3.63;;;;;;;0.26;100.00;102210.44;5073083;28;20293;-74
2023/01/23 03:12:25;;;;;;;1.13;1.13;;;;;;;0.29;100.00;102211.91;5072701;28;20504;-74
2023/01/23 03:14:53;;;;;;;0.00;0.00;;;;;;;0.26;100.00;102213.13;5072662;28;20582;-74
2023/01/23 03:17:19;;;;;;;0.67;0.67;;;;;;;0.27;100.00;102216.63;5072447;28;20195;-74
2023/01/23 03:19:45;;;;;;;4.70;4.30;;;;;;;0.25;100.00;102211.47;5072091;28;20643;-77
2023/01/23 03:22:10;;;;;;;2.63;2.53;;;;;;;0.25;100.00;102211.47;5072460;28;20982;-73
2023/01/23 03:24:35;;;;;;;0.57;0.57;;;;;;;0.23;100.00;102210.00;5072519;28;20174;-75
2023/01/23 03:27:02;;;;;;;1.70;1.60;;;;;;;0.23;100.00;102204.63;5072465;28;20270;-75
2023/01/23 03:32:13;;;;;;;0.07;0.07;;;;;;;0.25;100.00;102205.25;5072561;28;20162;-75
2023/01/23 03:34:40;;;;;;;13.53;5.50;;;;;;;0.20;100.00;102202.34;5072239;28;20446;-74
2023/01/23 03:37:09;;;;;;;2.53;2.40;;;;;;;0.20;100.00;102199.66;5072066;28;20459;-75
2023/01/23 03:42:19;;;;;;;0.20;0.17;;;;;;;0.19;100.00;102185.41;5072093;28;20754;-74
2023/01/23 03:44:44;;;;;;;1.20;0.83;;;;;;;0.18;100.00;102182.91;5072044;28;20488;-74
2023/01/23 03:47:09;;;;;;;0.73;0.73;;;;;;;0.17;100.00;102182.09;5072142;28;20193;-75
2023/01/23 03:49:35;;;;;;;0.50;0.50;;;;;;;0.18;100.00;102180.22;5071951;28;20182;-74
2023/01/23 03:52:01;;;;;;;2.43;2.33;;;;;;;0.17;100.00;102187.47;5072053;28;20253;-74
2023/01/23 03:54:26;;;;;;;1.60;1.27;;;;;;;0.16;100.00;102175.06;5071805;28;20176;-76
2023/01/23 03:56:51;;;;;;;2.00;1.90;;;;;;;0.19;100.00;102179.19;5071765;28;20228;-74
2023/01/23 03:59:17;;;;;;;2.80;2.57;;;;;;;0.13;100.00;102178.13;5071859;28;20232;-74
2023/01/23 04:01:43;;;;;;;1.13;1.07;;;;;;;0.14;100.00;102166.34;5071586;28;20175;-74
2023/01/23 04:04:08;;;;;;;2.63;1.53;;;;;;;0.14;100.00;102169.03;5071790;28;20257;-75
2023/01/23 04:06:33;;;;;;;0.87;0.87;;;;;;;0.15;100.00;102170.72;5071512;28;20191;-74
2023/01/23 04:08:59;;;;;;;1.00;1.00;;;;;;;0.14;100.00;102165.50;5071291;28;20201;-75
2023/01/23 04:11:25;;;;;;;0.80;0.80;;;;;;;0.14;100.00;102165.50;5070234;28;20186;-75
2023/01/23 04:13:51;;;;;;;0.00;0.00;;;;;;;0.12;100.00;102162.19;5071589;28;20807;-74
2023/01/23 04:16:16;;;;;;;0.20;0.20;;;;;;;0.11;100.00;102164.06;5071474;28;20559;-74
2023/01/23 04:18:41;;;;;;;0.20;0.20;;;;;;;0.14;100.00;102165.50;5071561;28;20213;-74
2023/01/23 04:21:07;;;;;;;1.13;1.13;;;;;;;0.11;100.00;102165.91;5071245;28;20174;-74
2023/01/23 04:23:32;;;;;;;3.73;2.93;;;;;;;0.09;100.00;102158.06;5071155;28;20182;-74
2023/01/23 04:25:58;;;;;;;0.53;0.53;;;;;;;0.09;100.00;102167.97;5071164;28;20175;-74
2023/01/23 04:28:23;;;;;;;2.57;2.33;;;;;;;0.07;100.00;102165.50;5071155;28;20195;-76
2023/01/23 04:30:50;;;;;;;0.00;0.00;;;;;;;0.08;100.00;102164.47;5070405;28;20256;-74
2023/01/23 04:33:16;;;;;;;2.80;2.60;;;;;;;0.08;100.00;102169.84;5070963;28;20620;-74
2023/01/23 04:35:59;;;;;;;0.50;0.50;;;;;;;0.07;100.00;102165.50;5071597;28;20198;-73
2023/01/23 04:38:27;;;;;;;0.63;0.43;;;;;;;0.09;100.00;102173.34;5071567;28;20198;-78
2023/01/23 04:40:52;;;;;;;0.00;0.00;;;;;;;0.12;100.00;102171.09;5071653;28;20163;-79
2023/01/23 04:43:18;;;;;;;0.60;0.60;;;;;;;0.07;100.00;102170.03;5071280;28;20166;-74
2023/01/23 04:45:44;;;;;;;0.03;0.03;;;;;;;0.09;100.00;102167.97;5071563;28;20411;-75
2023/01/23 04:48:10;;;;;;;5.43;4.37;;;;;;;0.09;100.00;102184.09;5070480;28;20182;-79
2023/01/23 04:50:36;;;;;;;0.30;0.30;;;;;;;0.07;100.00;102176.25;5071226;28;20175;-77
2023/01/23 04:53:01;;;;;;;2.00;1.13;;;;;;;0.07;100.00;102175.41;5069564;28;20185;-79
2023/01/23 04:55:27;;;;;;;8.37;2.37;;;;;;;0.07;100.00;102170.88;5069713;28;20178;-78
2023/01/23 04:57:52;;;;;;;7.53;2.93;;;;;;;0.08;100.00;102174.38;5070900;28;20705;-78
2023/01/23 05:00:18;;;;;;;0.20;0.20;;;;;;;0.07;100.00;102170.88;5070660;28;20642;-78
2023/01/23 05:02:47;;;;;;;0.40;0.40;;;;;;;0.10;100.00;102169.63;5070189;28;20175;-80
2023/01/23 05:05:13;;;;;;;0.40;0.40;;;;;;;0.11;100.00;102165.91;5070827;28;20182;-78
2023/01/23 05:07:40;;;;;;;0.93;0.93;;;;;;;0.13;100.00;102171.91;5071097;28;20992;-77
2023/01/23 05:10:06;;;;;;;0.93;0.93;;;;;;;0.12;100.00;102164.88;5070886;28;20166;-79
2023/01/23 05:12:31;;;;;;;0.30;0.30;;;;;;;0.14;100.00;102169.03;5070567;28;20454;-74
2023/01/23 05:14:56;;;;;;;0.00;0.00;;;;;;;0.09;100.00;102174.19;5070785;28;20634;-79
2023/01/23 05:17:22;;;;;;;0.63;0.63;;;;;;;0.11;100.00;102182.03;5070457;28;20198;-77
2023/01/23 05:19:47;;;;;;;0.23;0.20;;;;;;;0.07;100.00;102165.50;5070760;28;20242;-80
2023/01/23 05:22:12;;;;;;;5.63;2.03;;;;;;;0.07;100.00;102175.41;5071076;28;20220;-74
2023/01/23 05:24:38;;;;;;;0.20;0.20;;;;;;;0.05;100.00;102169.41;5072916;28;20179;-74
2023/01/23 05:27:03;;;;;;;2.00;1.90;;;;;;;0.04;100.00;102176.66;5081350;28;20170;-75
2023/01/23 05:29:28;;;;;;;2.57;2.03;;;;;;;0.03;100.00;102174.16;5076114;28;20861;-73
2023/01/23 05:31:54;;;;;;;0.67;0.67;;;;;;;0.07;100.00;102180.78;5070607;28;20174;-74
2023/01/23 05:34:19;;;;;;;1.73;1.43;;;;;;;-0.01;100.00;102182.59;5070860;28;20190;-74
2023/01/23 05:36:44;;;;;;;0.10;0.10;;;;;;;0.03;100.00;102185.72;5070628;28;20569;-74
2023/01/23 05:39:10;;;;;;;0.20;0.20;;;;;;;0.04;100.00;102186.56;5070605;28;20171;-74
2023/01/23 05:41:35;;;;;;;2.03;1.97;;;;;;;0.03;100.00;102188.41;5071307;28;20167;-74
2023/01/23 05:44:00;;;;;;;1.20;1.20;;;;;;;0.01;100.00;102184.28;5074386;28;20181;-74
2023/01/23 05:46:25;;;;;;;0.30;0.30;;;;;;;0.01;100.00;102192.34;5074522;28;20197;-73
2023/01/23 05:48:51;;;;;;;2.63;2.47;;;;;;;0.01;100.00;102203.09;5074469;28;20182;-74
2023/01/23 05:51:17;;;;;;;0.10;0.10;;;;;;;0.02;100.00;102207.44;5074217;28;20221;-74
2023/01/23 05:53:43;;;;;;;0.13;0.13;;;;;;;0.04;100.00;102210.75;5074358;28;20555;-73
2023/01/23 05:56:09;;;;;;;0.50;0.50;;;;;;;0.05;100.00;102217.78;5074283;28;20174;-74
2023/01/23 05:58:34;;;;;;;0.27;0.27;;;;;;;0.05;100.00;102218.59;5072942;28;20244;-75
2023/01/23 06:01:02;;;;;;;0.00;0.00;;;;;;;0.07;100.00;102221.09;5072612;28;20174;-75
2023/01/23 06:03:27;;;;;;;1.40;1.27;;;;;;;0.07;100.00;102221.09;5073953;28;20170;-74
2023/01/23 06:05:53;;;;;;;0.23;0.23;;;;;;;0.06;100.00;102216.75;5074050;28;20248;-73
2023/01/23 06:08:18;;;;;;;0.83;0.83;;;;;;;0.04;100.00;102222.31;5072689;28;20202;-73
2023/01/23 06:10:43;;;;;;;0.00;0.00;;;;;;;0.06;100.00;102230.19;5074341;28;20175;-74
2023/01/23 06:13:09;;;;;;;2.87;1.90;;;;;;;0.02;100.00;102231.59;5072366;28;20202;-74
2023/01/23 06:15:34;;;;;;;1.27;1.23;;;;;;;0.01;100.00;102235.31;5074019;28;20178;-79
2023/01/23 06:17:59;;;;;;;0.00;0.00;;;;;;;0.05;100.00;102244.63;5073791;28;20555;-78
2023/01/23 06:20:24;;;;;;;0.43;0.43;;;;;;;0.06;100.00;102257.03;5074404;28;20182;-79
2023/01/23 06:22:50;;;;;;;0.07;0.07;;;;;;;0.08;100.00;102258.50;5077694;28;20175;-78
2023/01/23 06:25:17;;;;;;;0.00;0.00;;;;;;;0.21;100.00;102257.75;5074419;28;20162;-78
2023/01/23 06:27:42;;;;;;;0.00;0.00;;;;;;;0.13;100.00;102260.59;5072387;28;20178;-78
2023/01/23 06:30:08;;;;;;;0.87;0.47;;;;;;;0.11;100.00;102271.53;5073723;28;20177;-79
2023/01/23 06:32:34;;;;;;;0.00;0.00;;;;;;;0.10;100.00;102269.88;5073550;28;20550;-79
2023/01/23 06:34:59;;;;;;;0.20;0.20;;;;;;;0.07;100.00;102270.28;5073164;28;20416;-78
2023/01/23 06:37:24;;;;;;;1.13;1.13;;;;;;;0.04;100.00;102276.06;5073504;28;20222;-80
2023/01/23 06:39:50;;;;;;;0.27;0.27;;;;;;;0.05;100.00;102279.56;5073482;28;20201;-78
2023/01/23 06:42:15;;;;;;;1.80;1.80;;;;;;;0.06;100.00;102278.53;5073487;28;20171;-79
2023/01/23 06:44:42;;;;;;;9.17;4.87;;;;;;;0.04;100.00;102273.38;5071644;28;20625;-78
2023/01/23 06:47:07;;;;;;;0.97;0.97;;;;;;;0.05;100.00;102280.41;5073553;28;20182;-79
2023/01/23 06:49:32;;;;;;;5.40;3.20;;;;;;;0.05;100.00;102280.41;5073419;28;20425;-78
2023/01/23 06:51:58;;;;;;;4.93;4.37;;;;;;;0.05;100.00;102287.63;5073337;28;20174;-77
2023/01/23 06:54:23;;;;;;;4.07;3.90;;;;;;;0.05;100.00;102285.78;5071143;28;20257;-79
2023/01/23 06:56:48;;;;;;;0.87;0.87;;;;;;;0.08;100.00;102289.91;5073023;28;20173;-79
2023/01/23 06:59:14;;;;;;;0.47;0.47;;;;;;;0.07;100.00;102293.63;5071765;28;20174;-79
2023/01/23 07:01:39;;;;;;;0.00;0.00;;;;;;;0.07;100.00;102302.53;5071884;28;20178;-79
2023/01/23 07:04:05;;;;;;;1.33;1.30;;;;;;;0.12;100.00;102310.81;5071639;28;20178;-79
2023/01/23 07:06:30;;;;;;;0.73;0.73;;;;;;;0.14;100.00;102324.88;5072929;28;20189;-79
2023/01/23 07:08:55;;;;;;;0.07;0.07;;;;;;;0.11;100.00;102325.28;5071633;28;20174;-80
2023/01/23 07:11:20;;;;;;;2.87;2.77;;;;;;;0.09;100.00;102323.81;5072896;28;20182;-78
2023/01/23 07:13:46;;;;;;;0.17;0.17;;;;;;;0.10;100.00;102320.94;5072785;28;20563;-79
2023/01/23 07:16:11;;;;;;;0.17;0.17;;;;;;;0.10;100.00;102331.69;5072819;28;20650;-80
2023/01/23 07:18:36;;;;;;;2.23;2.13;;;;;;;0.07;100.00;102331.25;5072315;28;20208;-79
2023/01/23 07:21:05;;;;;;;0.20;0.20;;;;;;;0.10;100.00;102338.91;5072305;28;20173;-80
2023/01/23 07:23:32;;;;;;;2.97;2.77;;;;;;;0.10;100.00;102341.59;5072071;28;20162;-78
2023/01/23 07:25:59;;;;;;;3.67;2.43;;;;;;;0.08;100.00;102346.34;5072269;28;20638;-78
2023/01/23 07:28:24;;;;;;;0.67;0.67;;;;;;;0.10;100.00;102345.13;5071970;28;20266;-80
2023/01/23 07:30:49;;;;;;;0.20;0.17;;;;;;;0.11;100.00;102351.31;5072561;28;20512;-79
2023/01/23 07:33:15;;;;;;;0.00;0.00;;;;;;;0.13;100.00;102355.47;5071748;28;20211;-80
2023/01/23 07:35:40;;;;;;;1.80;0.60;;;;;;;0.12;100.00;102355.66;5072123;28;20261;-80
2023/01/23 07:38:05;;;;;;;0.63;0.63;;;;;;;0.13;100.00;102362.72;5071915;28;20213;-81
2023/01/23 07:40:30;;;;;;;0.97;0.97;;;;;;;0.10;100.00;102365.78;5071945;28;20266;-80
2023/01/23 07:42:56;;;;;;;0.17;0.17;;;;;;;0.11;100.00;102367.44;5071462;28;20178;-71
2023/01/23 07:45:21;;;;;;;2.57;2.47;;;;;;;0.12;100.00;102371.78;5071674;28;20537;-79
2023/01/23 07:47:46;;;;;;;4.03;1.90;;;;;;;0.13;100.00;102379.66;5071614;28;20186;-78
2023/01/23 07:50:12;;;;;;;0.20;0.20;;;;;;;0.15;100.00;102368.75;5070543;28;20252;-80
2023/01/23 07:52:38;;;;;;;2.40;2.20;;;;;;;0.15;100.00;102379.50;5071484;28;20178;-80
2023/01/23 07:55:05;;;;;;;6.73;2.83;;;;;;;0.18;100.00;102381.78;5071531;28;20638;-80
2023/01/23 07:57:30;;;;;;;13.70;3.00;;;;;;;0.13;100.00;102382.34;5071297;28;20551;-79
2023/01/23 07:59:55;;;;;;;3.53;3.23;;;;;;;0.16;100.00;102376.59;5071433;28;20282;-79
2023/01/23 08:02:21;;;;;;;14.57;5.47;;;;;;;0.13;100.00;102384.19;5071446;28;20170;-78
2023/01/23 08:04:46;;;;;;;0.63;0.63;;;;;;;0.12;100.00;102386.06;5070994;28;20175;-80
2023/01/23 08:07:11;;;;;;;0.40;0.40;;;;;;;0.10;100.00;102381.91;5071420;28;20265;-81
2023/01/23 08:09:37;;;;;;;0.30;0.30;;;;;;;0.12;100.00;102385.22;5071229;28;20253;-79
2023/01/23 08:12:03;;;;;;;0.87;0.80;;;;;;;0.10;100.00;102390.81;5069859;28;20175;-81
2023/01/23 08:14:28;;;;;;;1.50;1.03;;;;;;;0.11;100.00;102388.94;5070947;28;20175;-74
2023/01/23 08:16:54;;;;;;;0.40;0.40;;;;;;;0.14;100.00;102394.75;5070913;28;20182;-78
2023/01/23 08:19:19;;;;;;;0.20;0.20;;;;;;;0.11;100.00;102383.56;5071218;28;20296;-79
2023/01/23 08:21:45;;;;;;;0.00;0.00;;;;;;;0.10;100.00;102382.75;5071698;28;20181;-79
2023/01/23 08:24:12;;;;;;;0.00;0.00;;;;;;;0.11;100.00;102384.41;5069030;28;20197;-80
2023/01/23 08:26:37;;;;;;;1.90;1.90;;;;;;;0.12;100.00;102387.91;5070479;28;20186;-79
2023/01/23 08:29:03;;;;;;;4.13;1.70;;;;;;;0.11;100.00;102375.50;5070992;28;20174;-80
2023/01/23 08:31:28;;;;;;;0.40;0.40;;;;;;;0.09;100.00;102385.63;5069602;28;20217;-78
2023/01/23 08:33:54;;;;;;;1.10;0.80;;;;;;;0.10;100.00;102384.59;5070629;28;20206;-80
2023/01/23 08:36:19;;;;;;;4.13;2.93;;;;;;;0.09;100.00;102383.78;5070780;28;20407;-79
2023/01/23 08:38:45;;;;;;;1.60;1.50;;;;;;;0.13;100.00;102384.19;5070487;28;20202;-80
2023/01/23 08:41:11;;;;;;;0.77;0.77;;;;;;;0.09;100.00;102380.25;5070503;28;20179;-80
2023/01/23 08:43:37;;;;;;;4.83;2.73;;;;;;;0.11;100.00;102386.25;5069154;28;20176;-79
2023/01/23 08:46:03;;;;;;;0.77;0.77;;;;;;;0.12;100.00;102382.53;5070189;28;20186;-81
2023/01/23 08:48:28;;;;;;;0.43;0.43;;;;;;;0.15;100.00;102383.00;5070424;28;20785;-77
2023/01/23 08:51:00;;;;;;;0.97;0.97;;;;;;;0.15;100.00;102388.38;5070514;28;20198;-76
2023/01/23 08:53:25;;;;;;;1.60;1.60;;;;;;;0.15;100.00;102384.88;5070388;28;20203;-76
2023/01/23 08:55:51;;;;;;;0.43;0.43;;;;;;;0.17;100.00;102398.94;5070463;28;20819;-79
2023/01/23 08:58:16;;;;;;;0.63;0.63;;;;;;;0.16;100.00;102397.28;5070730;28;20205;-78
2023/01/23 09:00:41;;;;;;;1.00;1.00;;;;;;;0.14;100.00;102407.38;5070569;28;20192;-78
2023/01/23 09:03:08;;;;;;;11.17;4.40;;;;;;;0.13;100.00;102411.91;5070200;28;20529;-79
2023/01/23 09:05:34;;;;;;;0.73;0.73;;;;;;;0.20;100.00;102412.81;5070186;28;20229;-77
2023/01/23 09:08:00;;;;;;;0.43;0.20;;;;;;;0.21;100.00;102417.16;5070425;28;20182;-79
2023/01/23 09:10:25;;;;;;;2.93;2.63;;;;;;;0.14;100.00;102413.56;5070313;28;20417;-77
2023/01/23 09:12:52;;;;;;;0.00;0.00;;;;;;;0.21;100.00;102419.84;5070342;28;20216;-75
2023/01/23 09:15:18;;;;;;;0.00;0.00;;;;;;;0.24;100.00;102416.75;5069016;28;20486;-80
2023/01/23 09:17:43;;;;;;;0.47;0.47;;;;;;;0.22;100.00;102423.38;5069232;28;20277;-80
2023/01/23 09:20:09;;;;;;;1.03;1.03;;;;;;;0.23;100.00;102425.84;5069829;28;20695;-79
2023/01/23 09:22:35;;;;;;;1.90;1.80;;;;;;;0.26;100.00;102438.06;5069756;28;20174;-77
2023/01/23 09:25:00;;;;;;;1.30;1.20;;;;;;;0.25;100.00;102431.88;5070406;28;20649;-76
2023/01/23 09:27:25;;;;;;;1.43;1.23;;;;;;;0.29;100.00;102435.84;5069953;28;20189;-78
2023/01/23 09:29:51;;;;;;;0.23;0.23;;;;;;;0.30;100.00;102439.38;5070307;28;20178;-83
2023/01/23 09:32:16;;;;;;;0.00;0.00;;;;;;;0.33;100.00;102448.91;5068811;28;20223;-80
2023/01/23 09:34:42;;;;;;;0.00;0.00;;;;;;;0.37;100.00;102459.06;5065964;28;20989;-79
2023/01/23 09:37:07;;;;;;;1.37;1.37;;;;;;;0.39;100.00;102462.38;5066347;28;20183;-79
2023/01/23 09:39:33;;;;;;;0.63;0.63;;;;;;;0.35;100.00;102477.25;5069371;28;20189;-80
2023/01/23 09:42:06;;;;;;;0.90;0.27;;;;;;;0.38;100.00;102467.94;5069518;28;20194;-75
2023/01/23 09:44:41;;;;;;;5.93;1.43;;;;;;;0.32;100.00;102468.75;5069996;28;20163;-76
2023/01/23 09:47:18;;;;;;;0.20;0.20;;;;;;;0.33;100.00;102473.09;5068396;28;20213;-79
2023/01/23 09:50:12;;;;;;;2.63;2.57;;;;;;;0.28;100.00;102479.03;5068548;28;20178;-79
2023/01/23 09:52:48;;;;;;;0.00;0.00;;;;;;;0.30;100.00;102485.06;5069758;28;20501;-78
2023/01/23 09:55:40;;;;;;;1.47;1.47;;;;;;;0.29;100.00;102491.47;5069865;28;20254;-80
2023/01/23 09:58:17;;;;;;;1.70;1.70;;;;;;;0.32;100.00;102504.50;5069687;28;20244;-80
2023/01/23 10:00:42;;;;;;;0.00;0.00;;;;;;;0.43;100.00;102508.53;5069949;28;20178;-79
2023/01/23 10:03:14;;;;;;;1.23;1.13;;;;;;;0.42;100.00;102509.53;5068231;28;20259;-79
2023/01/23 10:05:42;;;;;;;0.47;0.47;;;;;;;0.41;100.00;102510.56;5069349;28;20183;-74
2023/01/23 10:08:26;;;;;;;2.13;2.00;;;;;;;0.37;100.00;102509.31;5069598;28;20413;-77
2023/01/23 10:11:01;;;;;;;3.00;2.10;;;;;;;0.41;100.00;102511.41;5069703;28;20228;-75
2023/01/23 10:13:30;;;;;;;0.00;0.00;;;;;;;0.44;100.00;102515.59;5069440;28;20757;-76
2023/01/23 10:16:22;;;;;;;4.47;2.10;;;;;;;0.37;100.00;102509.31;5069540;28;20170;-76
2023/01/23 10:19:06;;;;;;;1.13;1.13;;;;;;;0.31;100.00;102512.78;5069427;28;20264;-76
2023/01/23 10:21:34;;;;;;;0.57;0.57;;;;;;;0.30;100.00;102506.56;5068110;28;20182;-75
2023/01/23 10:24:12;;;;;;;2.57;1.93;;;;;;;0.31;100.00;102504.72;5069295;28;20665;-76
2023/01/23 10:26:41;;;;;;;5.13;1.87;;;;;;;0.27;100.00;102507.75;5069417;28;20213;-76
2023/01/23 10:29:29;;;;;;;1.53;1.53;;;;;;;0.26;100.00;102518.72;5070862;28;20179;-75
2023/01/23 10:31:57;;;;;;;0.23;0.13;;;;;;;0.27;100.00;102512.31;5073067;28;20380;-76
2023/01/23 10:34:51;;;;;;;7.80;5.10;;;;;;;0.24;100.00;102507.31;5072580;28;20182;-75
2023/01/23 10:37:20;;;;;;;1.07;1.07;;;;;;;0.25;100.00;102506.28;5064785;28;20329;-75
2023/01/23 10:40:10;;;;;;;2.00;1.90;;;;;;;0.28;100.00;102498.66;5072752;28;20262;-75
2023/01/23 10:42:35;;;;;;;10.43;6.47;;;;;;;0.28;100.00;102498.66;5072561;28;20182;-73
2023/01/23 10:45:00;;;;;;;1.70;1.60;;;;;;;0.30;100.00;102498.50;5072406;28;20421;-75
2023/01/23 10:47:33;;;;;;;23.90;7.73;;;;;;;0.22;100.00;102488.69;5072763;28;20262;-74
2023/01/23 10:49:58;;;;;;;3.60;3.20;;;;;;;0.25;100.00;102484.78;5072954;28;20221;-75
2023/01/23 10:52:35;;;;;;;4.27;3.53;;;;;;;0.31;100.00;102488.59;5073163;28;20876;-73
2023/01/23 10:55:00;;;;;;;10.57;6.07;;;;;;;0.32;100.00;102491.06;5071952;28;20657;-79
2023/01/23 10:57:30;;;;;;;0.87;0.87;;;;;;;0.34;100.00;102486.34;5072988;28;20249;-79
2023/01/23 10:59:55;;;;;;;0.53;0.53;;;;;;;0.34;100.00;102491.72;5071760;28;20179;-76
2023/01/23 11:02:46;;;;;;;7.67;3.17;;;;;;;0.40;100.00;102495.47;5073036;28;20170;-75
2023/01/23 11:05:40;;;;;;;3.70;2.87;;;;;;;0.31;100.00;102486.72;5071156;28;20212;-74
2023/01/23 11:08:26;;;;;;;6.93;4.43;;;;;;;0.34;100.00;102494.41;5071662;28;20424;-76
2023/01/23 11:10:53;;;;;;;3.80;3.33;;;;;;;0.32;100.00;102491.06;5073046;28;20171;-74
2023/01/23 11:13:28;;;;;;;1.60;1.50;;;;;;;0.40;100.00;102496.31;5072716;28;20181;-75
2023/01/23 11:15:53;;;;;;;8.77;5.90;;;;;;;0.38;100.00;102492.97;5072832;28;20446;-76
2023/01/23 11:18:31;;;;;;;8.47;4.33;;;;;;;0.36;100.00;102486.97;5072834;28;20236;-76
2023/01/23 11:20:58;;;;;;;17.23;4.60;;;;;;;0.42;100.00;102491.56;5071425;28;20175;-75
2023/01/23 11:23:24;;;;;;;3.00;2.80;;;;;;;0.41;100.00;102479.13;5071069;28;20496;-74
2023/01/23 11:25:51;;;;;;;0.97;0.97;;;;;;;0.43;100.00;102478.94;5072606;28;20994;-75
2023/01/23 11:28:53;;;;;;;1.17;1.07;;;;;;;0.47;100.00;102474.88;5072891;28;20265;-76
2023/01/23 11:31:21;;;;;;;0.57;0.57;;;;;;;0.47;100.00;102474.88;5072025;28;20424;-74
2023/01/23 11:34:16;;;;;;;0.10;0.10;;;;;;;0.46;100.00;102474.03;5072619;28;20450;-73